createdAt,value
2023-04-06T00:02:04.619Z,95.46
2023-04-06T00:06:08.300Z,95.13
2023-04-06T00:10:11.755Z,95.15
2023-04-06T00:14:15.119Z,95.92
2023-04-06T00:18:18.350Z,96.50
2023-04-06T00:22:21.665Z,97.29
2023-04-06T00:26:25.098Z,97.23
2023-04-06T00:30:28.705Z,96.48
2023-04-06T00:34:31.757Z,97.14
2023-04-06T00:38:34.881Z,96.60
2023-04-06T00:42:39.857Z,95.47
2023-04-06T00:46:43.063Z,94.46
2023-04-06T00:50:46.760Z,93.22
2023-04-06T00:54:51.034Z,91.92
2023-04-06T00:58:54.862Z,91.39
2023-04-06T01:03:01.025Z,91.63
2023-04-06T01:07:05.394Z,92.16
2023-04-06T01:11:08.649Z,92.66
2023-04-06T01:15:12.719Z,94.38
2023-04-06T01:19:16.115Z,96.69
2023-04-06T01:23:19.381Z,98.35
2023-04-06T01:27:22.835Z,99.38
2023-04-06T01:31:26.255Z,99.95
2023-04-06T01:35:30.078Z,100.00
2023-04-06T01:39:33.206Z,100.00
2023-04-06T01:43:36.986Z,100.00
2023-04-06T01:47:40.167Z,100.00
2023-04-06T01:51:48.802Z,99.56
2023-04-06T01:55:51.876Z,98.70
2023-04-06T01:59:56.054Z,98.28
2023-04-06T02:03:59.216Z,97.99
2023-04-06T02:08:02.224Z,97.50
2023-04-06T02:12:06.085Z,97.14
2023-04-06T02:16:17.545Z,96.19
2023-04-06T02:20:20.678Z,95.12
2023-04-06T02:24:24.073Z,94.66
2023-04-06T02:28:27.566Z,94.18
2023-04-06T02:32:31.163Z,93.60
2023-04-06T02:36:34.293Z,92.97
2023-04-06T02:40:37.545Z,91.82
2023-04-06T02:44:40.898Z,91.23
2023-04-06T02:48:44.046Z,91.30
2023-04-06T02:52:47.055Z,91.66
2023-04-06T02:56:50.544Z,92.19
2023-04-06T03:00:53.844Z,91.68
2023-04-06T03:04:57.167Z,92.79
2023-04-06T03:09:00.134Z,92.62
2023-04-06T03:13:03.850Z,92.13
2023-04-06T03:17:07.009Z,91.44
2023-04-06T03:21:09.938Z,90.31
2023-04-06T03:25:13.360Z,89.97
2023-04-06T03:29:17.109Z,89.16
2023-04-06T03:33:21.333Z,89.99
2023-04-06T03:37:24.291Z,92.72
2023-04-06T03:41:27.572Z,92.06
2023-04-06T03:45:31.123Z,92.79
2023-04-06T03:49:34.727Z,93.65
2023-04-06T03:53:38.302Z,95.56
2023-04-06T03:57:41.629Z,96.20
2023-04-06T04:01:45.074Z,95.58
2023-04-06T04:05:48.447Z,93.70
2023-04-06T04:09:51.833Z,91.86
2023-04-06T04:13:54.816Z,91.50
2023-04-06T04:17:59.808Z,91.10
2023-04-06T04:22:06.051Z,90.82
2023-04-06T04:26:11.200Z,90.43
2023-04-06T04:30:14.375Z,90.13
2023-04-06T04:34:18.317Z,90.53
2023-04-06T04:38:22.365Z,91.06
2023-04-06T04:42:25.690Z,91.93
2023-04-06T04:46:29.276Z,92.40
2023-04-06T04:50:33.262Z,93.64
2023-04-06T04:54:36.532Z,92.47
2023-04-06T04:58:40.023Z,89.56
2023-04-06T05:02:43.181Z,95.42
2023-04-06T05:06:46.574Z,90.27
2023-04-06T05:10:50.843Z,86.75
2023-04-06T05:14:55.310Z,85.11
2023-04-06T05:18:58.583Z,85.02
2023-04-06T05:23:02.581Z,84.48
2023-04-06T05:27:06.014Z,85.37
2023-04-06T05:31:29.108Z,87.70
2023-04-06T05:35:32.319Z,86.12
2023-04-06T05:39:35.533Z,91.28
2023-04-06T05:43:38.592Z,87.76
2023-04-06T05:47:41.827Z,84.56
2023-04-06T05:51:45.108Z,81.18
2023-04-06T05:55:48.643Z,77.19
2023-04-06T05:59:56.402Z,76.43
2023-04-06T06:04:01.242Z,74.16
2023-04-06T06:08:05.264Z,72.27
2023-04-06T06:12:08.930Z,72.44
2023-04-06T06:16:12.076Z,71.98
2023-04-06T06:20:16.469Z,73.45
2023-04-06T06:24:19.581Z,73.08
2023-04-06T06:28:22.670Z,71.43
2023-04-06T06:32:25.979Z,69.09
2023-04-06T06:36:31.723Z,68.64
2023-04-06T06:40:35.326Z,66.46
2023-04-06T06:44:40.599Z,65.73
2023-04-06T06:48:45.642Z,65.00
2023-04-06T06:52:48.809Z,64.18
2023-04-06T06:56:52.861Z,63.89
2023-04-06T07:01:00.045Z,64.11
2023-04-06T07:05:10.177Z,62.74
2023-04-06T07:09:20.117Z,61.60
2023-04-06T07:13:24.287Z,62.69
2023-04-06T07:17:27.651Z,62.41
2023-04-06T07:21:31.027Z,61.91
2023-04-06T07:25:35.233Z,62.58
2023-04-06T07:29:38.406Z,63.28
2023-04-06T07:33:41.706Z,63.33
2023-04-06T07:37:45.089Z,63.48
2023-04-06T07:41:48.555Z,64.22
2023-04-06T07:45:52.043Z,65.41
2023-04-06T07:49:57.168Z,66.98
2023-04-06T07:54:00.184Z,67.36
2023-04-06T07:58:04.697Z,66.70
2023-04-06T08:02:08.218Z,67.78
2023-04-06T08:06:11.746Z,68.77
2023-04-06T08:10:14.897Z,69.63
2023-04-06T08:14:18.514Z,70.50
2023-04-06T08:18:21.666Z,69.76
2023-04-06T08:22:25.257Z,68.91
2023-04-06T08:26:28.354Z,68.46
2023-04-06T08:30:31.967Z,69.20
2023-04-06T08:34:35.153Z,69.18
2023-04-06T08:38:38.358Z,68.70
2023-04-06T08:42:50.706Z,67.47
2023-04-06T08:46:54.143Z,67.02
2023-04-06T08:50:57.295Z,65.98
2023-04-06T08:55:00.795Z,64.26
2023-04-06T08:59:04.871Z,61.85
2023-04-06T09:03:09.128Z,61.21
2023-04-06T09:07:13.783Z,61.44
2023-04-06T09:11:17.588Z,60.60
2023-04-06T09:15:24.588Z,59.70
2023-04-06T09:19:28.093Z,59.16
2023-04-06T09:23:32.047Z,57.59
2023-04-06T09:27:38.377Z,56.96
2023-04-06T09:31:42.752Z,57.25
2023-04-06T09:35:51.707Z,53.77
2023-04-06T09:40:09.219Z,56.59
2023-04-06T09:44:14.442Z,56.21
2023-04-06T09:48:19.201Z,54.57
2023-04-06T09:52:26.185Z,51.71
2023-04-06T09:56:33.742Z,53.76
2023-04-06T10:01:03.021Z,51.78
2023-04-06T10:05:14.071Z,52.01
2023-04-06T10:09:17.576Z,51.02
2023-04-06T10:13:21.174Z,49.59
2023-04-06T10:17:27.034Z,48.33
2023-04-06T10:21:33.704Z,47.16
2023-04-06T10:25:38.015Z,50.03
2023-04-06T10:29:46.296Z,50.26
2023-04-06T10:33:59.891Z,50.95
2023-04-06T10:38:04.636Z,50.61
2023-04-06T10:42:08.275Z,50.45
2023-04-06T10:46:11.997Z,50.29
2023-04-06T10:50:19.987Z,50.75
2023-04-06T10:54:25.743Z,51.31
2023-04-06T10:58:28.822Z,52.35
2023-04-06T11:02:32.567Z,52.98
2023-04-06T11:06:35.933Z,52.43
2023-04-06T11:10:38.872Z,50.50
2023-04-06T11:14:42.775Z,51.18
2023-04-06T11:18:58.101Z,51.67
2023-04-06T11:23:01.434Z,52.19
2023-04-06T11:27:06.149Z,51.50
2023-04-06T11:31:10.543Z,51.23
2023-04-06T11:35:24.125Z,49.75
2023-04-06T11:39:29.583Z,50.71
2023-04-06T11:43:32.839Z,49.43
2023-04-06T11:47:38.820Z,50.28
2023-04-06T11:51:42.019Z,49.01
2023-04-06T11:55:47.880Z,47.04
2023-04-06T11:59:51.161Z,48.63
2023-04-06T12:03:54.948Z,48.21
2023-04-06T12:08:01.082Z,48.92
2023-04-06T12:12:06.397Z,47.40
2023-04-06T12:16:09.519Z,46.46
2023-04-06T12:20:24.747Z,46.68
2023-04-06T12:24:30.006Z,47.19
2023-04-06T12:28:32.970Z,49.85
2023-04-06T12:32:35.966Z,49.32
2023-04-06T12:36:39.988Z,50.11
2023-04-06T12:40:43.061Z,50.89
2023-04-06T12:44:46.407Z,49.27
2023-04-06T12:48:49.351Z,48.66
2023-04-06T12:52:52.388Z,46.94
2023-04-06T12:56:57.597Z,46.96
2023-04-06T13:01:04.046Z,47.92
2023-04-06T13:05:07.025Z,47.10
2023-04-06T13:09:10.236Z,47.69
2023-04-06T13:13:13.276Z,47.63
2023-04-06T13:17:17.759Z,47.54
2023-04-06T13:21:21.945Z,46.86
2023-04-06T13:25:25.413Z,47.30
2023-04-06T13:29:28.387Z,46.84
2023-04-06T13:33:31.980Z,46.90
2023-04-06T13:37:35.878Z,48.42
2023-04-06T13:41:38.679Z,47.43
2023-04-06T13:45:41.677Z,46.55
2023-04-06T13:49:44.700Z,48.51
2023-04-06T13:53:47.580Z,48.36
2023-04-06T13:57:50.570Z,48.32
2023-04-06T14:01:53.896Z,47.06
2023-04-06T14:06:01.332Z,45.84
2023-04-06T14:10:14.856Z,47.30
2023-04-06T14:14:18.450Z,46.97
2023-04-06T14:18:22.280Z,46.54
2023-04-06T14:22:25.526Z,46.58
2023-04-06T14:26:28.681Z,46.52
2023-04-06T14:30:32.052Z,47.60
2023-04-06T14:34:38.408Z,46.64
2023-04-06T14:38:41.609Z,47.24
2023-04-06T14:42:44.378Z,48.07
2023-04-06T14:46:47.369Z,46.45
2023-04-06T14:50:54.445Z,48.07
2023-04-06T14:54:57.319Z,48.24
2023-04-06T14:59:02.429Z,48.36
2023-04-06T15:03:05.761Z,48.49
2023-04-06T15:07:08.771Z,47.43
2023-04-06T15:11:12.815Z,47.23
2023-04-06T15:15:16.359Z,46.91
2023-04-06T15:19:19.297Z,48.37
2023-04-06T15:23:22.173Z,48.16
2023-04-06T15:27:25.608Z,47.51
2023-04-06T15:31:37.779Z,47.63
2023-04-06T15:35:43.560Z,48.58
2023-04-06T15:39:46.616Z,47.92
2023-04-06T15:43:52.125Z,48.26
2023-04-06T15:47:55.161Z,49.32
2023-04-06T15:51:57.999Z,48.80
2023-04-06T15:56:02.299Z,48.17
2023-04-06T16:00:06.159Z,48.53
2023-04-06T16:04:11.351Z,49.15
2023-04-06T16:08:17.168Z,49.33
2023-04-06T16:12:21.463Z,48.42
2023-04-06T16:16:24.502Z,49.21
2023-04-06T16:20:27.671Z,49.47
2023-04-06T16:24:30.657Z,50.98
2023-04-06T16:28:34.376Z,51.52
2023-04-06T16:32:37.651Z,53.10
2023-04-06T16:36:47.352Z,54.06
2023-04-06T16:41:04.989Z,53.55
2023-04-06T16:45:15.430Z,53.98
2023-04-06T16:49:44.687Z,55.61
2023-04-06T16:53:52.688Z,57.21
2023-04-06T16:57:57.460Z,57.36
2023-04-06T17:02:10.928Z,57.62
2023-04-06T17:06:16.366Z,58.03
2023-04-06T17:10:28.975Z,57.92
2023-04-06T17:14:43.699Z,59.03
2023-04-06T17:18:54.803Z,58.58
2023-04-06T17:23:05.140Z,59.95
2023-04-06T17:27:11.917Z,59.64
2023-04-06T17:31:27.261Z,59.64
2023-04-06T17:35:47.040Z,60.24
2023-04-06T17:44:18.521Z,60.14
2023-04-06T17:48:41.908Z,60.70
2023-04-06T17:53:08.248Z,60.45
2023-04-06T17:57:18.943Z,60.86
2023-04-06T18:01:22.770Z,60.96
2023-04-06T18:05:35.604Z,61.22
2023-04-06T18:09:46.595Z,61.57
2023-04-06T18:13:59.503Z,61.85
2023-04-06T18:18:09.932Z,62.02
2023-04-06T18:22:18.557Z,61.96
2023-04-06T18:26:25.905Z,62.30
2023-04-06T18:30:29.853Z,63.61
2023-04-06T18:34:33.614Z,63.96
2023-04-06T18:38:38.596Z,65.26
2023-04-06T18:42:41.513Z,65.31
2023-04-06T18:46:45.122Z,64.76
2023-04-06T18:51:00.315Z,65.00
2023-04-06T18:55:27.066Z,65.85
2023-04-06T18:59:46.575Z,65.76
2023-04-06T19:03:53.966Z,66.42
2023-04-06T19:07:57.132Z,66.20
2023-04-06T19:12:03.793Z,67.07
2023-04-06T19:16:28.619Z,68.38
2023-04-06T19:20:35.562Z,68.59
2023-04-06T19:24:45.661Z,69.25
2023-04-06T19:28:53.666Z,70.59
2023-04-06T19:32:58.006Z,71.35
2023-04-06T19:37:04.974Z,71.55
2023-04-06T19:41:15.360Z,72.14
2023-04-06T19:45:22.650Z,73.25
2023-04-06T19:49:30.408Z,72.13
2023-04-06T19:53:35.157Z,72.56
2023-04-06T19:57:42.145Z,72.34
2023-04-06T20:01:51.793Z,71.93
2023-04-06T20:05:56.778Z,73.34
2023-04-06T20:10:11.493Z,73.85
2023-04-06T20:14:20.259Z,74.99
2023-04-06T20:18:25.340Z,74.73
2023-04-06T20:22:38.057Z,74.98
2023-04-06T20:26:41.086Z,76.21
2023-04-06T20:30:44.105Z,77.80
2023-04-06T20:34:47.904Z,76.41
2023-04-06T20:38:51.081Z,76.39
2023-04-06T20:42:57.616Z,77.13
2023-04-06T20:47:00.797Z,77.73
2023-04-06T20:51:05.640Z,78.71
2023-04-06T20:55:09.072Z,79.08
2023-04-06T20:59:12.500Z,79.11
2023-04-06T21:03:17.457Z,79.41
2023-04-06T21:07:20.831Z,79.05
2023-04-06T21:11:23.635Z,78.26
2023-04-06T21:15:27.254Z,78.52
2023-04-06T21:19:30.378Z,80.35
2023-04-06T21:23:33.350Z,80.71
2023-04-06T21:27:36.309Z,80.55
2023-04-06T21:31:42.188Z,81.13
2023-04-06T21:35:45.559Z,81.85
2023-04-06T21:39:48.556Z,81.06
2023-04-06T21:43:51.448Z,80.80
2023-04-06T21:47:54.727Z,81.07
2023-04-06T21:51:57.768Z,79.18
2023-04-06T21:56:00.974Z,80.02
2023-04-06T22:00:10.380Z,79.50
2023-04-06T22:04:13.706Z,81.12
2023-04-06T22:08:25.464Z,80.81
2023-04-06T22:12:33.146Z,79.38
2023-04-06T22:16:36.275Z,77.93
2023-04-06T22:20:39.300Z,77.47
2023-04-06T22:24:42.389Z,79.46
2023-04-06T22:28:45.330Z,80.89
2023-04-06T22:32:48.292Z,78.57
2023-04-06T22:36:51.268Z,79.15
2023-04-06T22:40:54.222Z,79.25
2023-04-06T22:44:57.054Z,79.65
2023-04-06T22:48:59.978Z,79.95
2023-04-06T22:53:02.885Z,80.77
2023-04-06T22:57:06.052Z,81.15
2023-04-06T23:01:09.199Z,81.29
2023-04-06T23:05:12.501Z,82.53
2023-04-06T23:09:15.264Z,82.54
2023-04-06T23:13:17.991Z,82.18
2023-04-06T23:17:20.814Z,82.40
2023-04-06T23:21:23.696Z,82.26
2023-04-06T23:25:27.166Z,82.49
2023-04-06T23:29:30.186Z,81.82
2023-04-06T23:33:33.154Z,81.71
2023-04-06T23:37:36.145Z,82.26
2023-04-06T23:41:39.026Z,83.36
2023-04-06T23:45:42.776Z,84.18
2023-04-06T23:49:45.881Z,84.13
2023-04-06T23:53:48.632Z,84.33
2023-04-06T23:57:51.379Z,84.85
